Time;durP1;ratioP1;P1;durP2;ratioP2;P2;SDS_P1;SDS_P2;PMS_P1;PMS_P2;Temp;Humidity;BMP_temperature;BMP_pressure;BME280_temperature;BME280_humidity;BME280_pressure;Samples;Min_cycle;Max_cycle;Signal;HPM_P1;HPM_P2
2023/12/12 00:00:46;;;;;;;;;;;16.50;57.90;;;;;;10314934;28;93012;-60
2023/12/12 00:05:48;;;;;;;;;;;16.50;56.80;;;;;;10302986;28;94703;-60
2023/12/12 00:10:49;;;;;;;;;;;16.50;56.70;;;;;;10311140;28;93477;-60
2023/12/12 00:15:51;;;;;;;;;;;16.50;56.80;;;;;;10319611;28;96334;-60
2023/12/12 00:20:53;;;;;;;;;;;16.40;57.40;;;;;;10317974;28;93768;-60
2023/12/12 00:25:55;;;;;;;;;;;16.40;57.60;;;;;;10318670;28;94868;-60
2023/12/12 00:30:57;;;;;;;;;;;16.40;57.50;;;;;;10326444;28;95014;-61
2023/12/12 00:36:00;;;;;;;;;;;16.40;57.30;;;;;;10305389;28;93774;-61
2023/12/12 00:41:02;;;;;;;;;;;16.40;57.00;;;;;;10326001;28;95327;-60
2023/12/12 00:46:05;;;;;;;;;;;16.30;56.80;;;;;;10310869;28;94999;-60
2023/12/12 00:51:08;;;;;;;;;;;16.30;56.60;;;;;;10329318;28;93098;-60
2023/12/12 00:56:10;;;;;;;;;;;16.30;56.40;;;;;;10326333;28;95026;-60
2023/12/12 01:01:13;;;;;;;;;;;16.30;56.20;;;;;;10327613;28;94799;-60
2023/12/12 01:06:23;;;;;;;;;;;16.30;56.00;;;;;;10313944;28;96688;-60
2023/12/12 01:11:29;;;;;;;;;;;16.30;56.40;;;;;;10316795;28;93481;-59
2023/12/12 01:16:31;;;;;;;;;;;16.30;57.20;;;;;;10328661;28;94833;-60
2023/12/12 01:21:33;;;;;;;;;;;16.20;57.30;;;;;;10327881;28;94686;-60
2023/12/12 01:26:35;;;;;;;;;;;16.20;57.20;;;;;;10299161;28;93425;-61
2023/12/12 01:31:37;;;;;;;;;;;16.20;56.90;;;;;;10325163;28;93340;-60
2023/12/12 01:36:39;;;;;;;;;;;16.20;56.70;;;;;;10328625;28;94622;-60
2023/12/12 01:41:40;;;;;;;;;;;16.20;56.40;;;;;;10309581;28;91852;-61
2023/12/12 01:46:46;;;;;;;;;;;16.20;56.30;;;;;;10307893;28;94462;-60
2023/12/12 01:51:48;;;;;;;;;;;16.20;56.20;;;;;;10311218;28;94778;-60
2023/12/12 01:56:50;;;;;;;;;;;16.20;56.00;;;;;;10315558;28;96991;-60
2023/12/12 02:07:09;;;;;;;;;;;16.20;56.30;;;;;;10298057;22;95238;-49
2023/12/12 02:12:11;;;;;;;;;;;16.10;57.10;;;;;;10301954;28;94738;-48
2023/12/12 02:17:12;;;;;;;;;;;16.10;57.10;;;;;;10322502;28;94238;-47
2023/12/12 02:22:14;;;;;;;;;;;16.10;56.90;;;;;;10316819;28;94536;-48
2023/12/12 02:27:16;;;;;;;;;;;16.10;56.60;;;;;;10313745;28;93493;-50
2023/12/12 02:32:19;;;;;;;;;;;16.10;56.50;;;;;;10314019;28;92795;-47
2023/12/12 02:37:21;;;;;;;;;;;16.10;56.30;;;;;;10323336;28;93414;-48
2023/12/12 02:42:22;;;;;;;;;;;16.10;56.10;;;;;;10301317;28;93456;-50
2023/12/12 02:47:24;;;;;;;;;;;16.10;56.00;;;;;;10321583;28;97261;-51
2023/12/12 02:52:26;;;;;;;;;;;16.10;55.90;;;;;;10316139;28;94445;-50
2023/12/12 02:57:28;;;;;;;;;;;16.10;55.70;;;;;;10308481;28;94092;-49
2023/12/12 03:02:30;;;;;;;;;;;16.10;56.40;;;;;;10316277;28;94623;-50
2023/12/12 03:07:32;;;;;;;;;;;16.00;57.00;;;;;;10305622;28;94772;-49
2023/12/12 03:12:34;;;;;;;;;;;16.00;57.00;;;;;;10307569;28;94215;-50
2023/12/12 03:17:36;;;;;;;;;;;16.00;56.70;;;;;;10299004;28;93334;-50
2023/12/12 03:22:38;;;;;;;;;;;16.10;56.50;;;;;;10324960;28;93320;-47
2023/12/12 03:27:40;;;;;;;;;;;16.10;56.30;;;;;;10323837;28;94489;-47
2023/12/12 03:32:42;;;;;;;;;;;16.10;56.10;;;;;;10324085;28;94421;-48
2023/12/12 03:37:44;;;;;;;;;;;16.10;55.90;;;;;;10322431;28;96996;-52
2023/12/12 03:42:45;;;;;;;;;;;16.10;55.70;;;;;;10323346;28;94311;-46
2023/12/12 03:47:47;;;;;;;;;;;16.10;55.60;;;;;;10293864;28;93471;-50
2023/12/12 03:52:49;;;;;;;;;;;16.10;55.40;;;;;;10324343;28;94382;-51
2023/12/12 03:57:51;;;;;;;;;;;16.10;56.10;;;;;;10323062;28;94894;-49
2023/12/12 04:02:53;;;;;;;;;;;16.00;56.80;;;;;;10321555;28;93932;-67
2023/12/12 04:07:55;;;;;;;;;;;16.00;56.70;;;;;;10323346;28;94433;-50
2023/12/12 04:12:57;;;;;;;;;;;16.00;57.00;;;;;;10291058;28;93677;-50
2023/12/12 04:17:59;;;;;;;;;;;16.00;57.10;;;;;;10322956;28;94451;-49
2023/12/12 04:23:00;;;;;;;;;;;16.00;57.40;;;;;;10322926;28;93781;-47
2023/12/12 04:28:02;;;;;;;;;;;16.00;57.50;;;;;;10320661;28;97023;-49
2023/12/12 04:33:04;;;;;;;;;;;16.10;57.40;;;;;;10305356;28;94441;-49
2023/12/12 04:38:06;;;;;;;;;;;16.10;57.40;;;;;;10321519;28;93628;-50
2023/12/12 04:43:08;;;;;;;;;;;16.10;57.30;;;;;;10320331;28;94865;-47
2023/12/12 04:48:10;;;;;;;;;;;16.10;57.40;;;;;;10322450;28;93685;-47
2023/12/12 04:53:12;;;;;;;;;;;16.10;57.40;;;;;;10322152;28;93433;-49
2023/12/12 04:58:14;;;;;;;;;;;16.10;57.50;;;;;;10319557;28;94766;-48
2023/12/12 05:03:16;;;;;;;;;;;16.00;57.50;;;;;;10321411;28;91770;-50
2023/12/12 05:08:18;;;;;;;;;;;16.00;57.70;;;;;;10321886;28;93878;-48
2023/12/12 05:13:20;;;;;;;;;;;16.00;57.80;;;;;;10321876;28;94433;-49
2023/12/12 05:18:22;;;;;;;;;;;16.00;57.90;;;;;;10326129;28;97169;-49
2023/12/12 05:23:25;;;;;;;;;;;15.90;58.00;;;;;;10326633;28;92904;-50
2023/12/12 05:28:27;;;;;;;;;;;15.90;59.00;;;;;;10328152;28;93479;-47
2023/12/12 05:33:29;;;;;;;;;;;15.90;58.20;;;;;;10327483;28;92672;-48
2023/12/12 05:38:31;;;;;;;;;;;15.90;58.20;;;;;;10328915;28;94297;-47
2023/12/12 05:43:33;;;;;;;;;;;15.80;58.30;;;;;;10326788;28;94441;-50
2023/12/12 05:48:35;;;;;;;;;;;15.90;58.50;;;;;;10317467;28;93507;-47
2023/12/12 05:53:37;;;;;;;;;;;16.10;58.40;;;;;;10320364;28;93775;-50
2023/12/12 05:58:38;;;;;;;;;;;16.40;57.90;;;;;;10326998;28;92748;-47
2023/12/12 06:03:42;;;;;;;;;;;16.60;57.40;;;;;;10324701;28;93429;-50
2023/12/12 06:08:46;;;;;;;;;;;16.70;57.10;;;;;;10307311;28;96915;-50
2023/12/12 06:13:48;;;;;;;;;;;16.80;56.90;;;;;;10321422;28;95192;-50
2023/12/12 06:18:51;;;;;;;;;;;16.80;56.80;;;;;;10306593;28;94557;-47
2023/12/12 06:23:53;;;;;;;;;;;16.70;56.70;;;;;;10314545;28;94463;-54
2023/12/12 06:28:55;;;;;;;;;;;16.70;56.90;;;;;;10314319;28;93471;-49
2023/12/12 06:33:57;;;;;;;;;;;16.70;56.90;;;;;;10314357;28;94595;-51
2023/12/12 06:38:59;;;;;;;;;;;16.60;57.40;;;;;;10320515;28;93477;-49
2023/12/12 06:44:01;;;;;;;;;;;16.70;58.20;;;;;;10326305;28;93391;-48
2023/12/12 06:49:06;;;;;;;;;;;16.70;58.20;;;;;;10322826;28;94136;-49
2023/12/12 06:54:08;;;;;;;;;;;16.80;59.40;;;;;;10314463;28;94245;-48
2023/12/12 06:59:10;;;;;;;;;;;16.80;59.00;;;;;;10296106;28;95825;-46
2023/12/12 07:04:12;;;;;;;;;;;16.80;59.00;;;;;;10304791;28;94426;-46
2023/12/12 07:09:14;;;;;;;;;;;16.70;58.90;;;;;;10323010;28;94868;-46
2023/12/12 07:14:16;;;;;;;;;;;16.80;60.00;;;;;;10322639;28;94128;-48
2023/12/12 07:19:18;;;;;;;;;;;16.90;61.40;;;;;;10323418;28;93459;-45
2023/12/12 07:24:21;;;;;;;;;;;16.90;61.50;;;;;;10324929;28;93640;-48
2023/12/12 07:29:22;;;;;;;;;;;16.80;60.60;;;;;;10323599;28;94081;-46
2023/12/12 07:34:24;;;;;;;;;;;16.80;60.40;;;;;;10325124;28;92773;-46
2023/12/12 07:39:26;;;;;;;;;;;16.70;60.70;;;;;;10324896;28;94721;-46
2023/12/12 07:44:28;;;;;;;;;;;16.60;62.50;;;;;;10321737;28;93619;-46
2023/12/12 07:49:30;;;;;;;;;;;16.60;63.70;;;;;;10320770;28;95903;-46
2023/12/12 07:54:32;;;;;;;;;;;16.60;62.90;;;;;;10315872;28;94443;-45
2023/12/12 07:59:34;;;;;;;;;;;16.60;62.50;;;;;;10315029;28;93868;-48
2023/12/12 08:04:36;;;;;;;;;;;16.50;62.10;;;;;;10310091;28;93442;-52
2023/12/12 08:09:38;;;;;;;;;;;16.50;61.50;;;;;;10309631;28;94612;-52
2023/12/12 08:14:40;;;;;;;;;;;16.40;61.50;;;;;;10310794;28;93947;-50
2023/12/12 08:19:44;;;;;;;;;;;16.40;61.20;;;;;;10322051;28;94358;-66
2023/12/12 08:24:50;;;;;;;;;;;16.40;61.10;;;;;;10323021;28;92565;-51
2023/12/12 08:29:52;;;;;;;;;;;16.30;61.00;;;;;;10322927;28;93270;-47
2023/12/12 08:34:54;;;;;;;;;;;16.30;61.00;;;;;;10319891;28;94025;-50
2023/12/12 08:39:56;;;;;;;;;;;16.20;61.00;;;;;;10316990;28;96491;-50
2023/12/12 08:44:57;;;;;;;;;;;16.20;61.10;;;;;;10318837;28;94636;-50
2023/12/12 08:49:59;;;;;;;;;;;16.20;61.10;;;;;;10301543;28;93633;-49
2023/12/12 08:55:03;;;;;;;;;;;16.10;61.10;;;;;;10328291;28;94414;-48
2023/12/12 09:00:10;;;;;;;;;;;16.10;61.10;;;;;;10299245;28;93570;-50
2023/12/12 09:05:13;;;;;;;;;;;16.10;61.10;;;;;;10325392;28;93598;-47
2023/12/12 09:10:15;;;;;;;;;;;16.00;61.20;;;;;;10327766;28;93785;-47
2023/12/12 09:15:17;;;;;;;;;;;16.00;61.10;;;;;;10327927;28;93488;-49
2023/12/12 09:20:18;;;;;;;;;;;15.90;61.20;;;;;;10302221;28;93487;-47
2023/12/12 09:25:20;;;;;;;;;;;15.90;61.20;;;;;;10327834;28;93504;-47
2023/12/12 09:30:22;;;;;;;;;;;15.90;61.20;;;;;;10326231;28;96447;-49
2023/12/12 09:35:24;;;;;;;;;;;15.90;61.30;;;;;;10326870;28;94321;-48
2023/12/12 09:40:26;;;;;;;;;;;15.80;61.20;;;;;;10327606;28;94491;-49
2023/12/12 09:45:29;;;;;;;;;;;15.80;61.30;;;;;;10306704;28;95199;-48
2023/12/12 09:50:31;;;;;;;;;;;15.80;61.30;;;;;;10302157;28;93550;-47
2023/12/12 09:55:33;;;;;;;;;;;15.80;61.30;;;;;;10325993;28;93587;-48
2023/12/12 10:00:35;;;;;;;;;;;15.80;61.30;;;;;;10323599;28;93497;-46
2023/12/12 10:05:37;;;;;;;;;;;15.80;61.20;;;;;;10327075;28;93027;-47
2023/12/12 10:10:41;;;;;;;;;;;15.80;61.20;;;;;;10326284;28;93445;-49
2023/12/12 10:15:43;;;;;;;;;;;15.70;61.20;;;;;;10316834;28;93505;-51
2023/12/12 10:20:45;;;;;;;;;;;15.70;61.30;;;;;;10322514;28;96834;-49
2023/12/12 10:25:49;;;;;;;;;;;15.70;61.20;;;;;;10324850;28;93420;-49
2023/12/12 10:30:52;;;;;;;;;;;15.70;61.20;;;;;;10307126;28;94418;-47
2023/12/12 10:35:54;;;;;;;;;;;15.70;61.30;;;;;;10325622;28;94753;-48
2023/12/12 10:41:09;;;;;;;;;;;15.70;61.30;;;;;;10325862;28;94433;-46
2023/12/12 10:46:12;;;;;;;;;;;15.70;61.30;;;;;;10315165;28;94459;-49
2023/12/12 10:51:14;;;;;;;;;;;15.70;61.30;;;;;;10324159;28;93690;-47
2023/12/12 10:56:17;;;;;;;;;;;15.70;61.30;;;;;;10327247;28;93729;-48
2023/12/12 11:01:19;;;;;;;;;;;15.70;61.30;;;;;;10325249;28;94768;-49
2023/12/12 11:06:21;;;;;;;;;;;15.70;61.40;;;;;;10323053;28;93346;-47
2023/12/12 11:11:24;;;;;;;;;;;15.70;61.30;;;;;;10320852;28;96855;-49
2023/12/12 11:16:27;;;;;;;;;;;15.60;61.40;;;;;;10324025;28;94410;-48
2023/12/12 11:21:47;;;;;;;;;;;15.60;61.40;;;;;;10322027;28;114034;-48
2023/12/12 11:26:51;;;;;;;;;;;15.60;61.40;;;;;;10323639;28;94525;-47
2023/12/12 11:31:56;;;;;;;;;;;15.60;61.50;;;;;;10323622;28;94249;-48
2023/12/12 11:36:58;;;;;;;;;;;15.70;61.40;;;;;;10305917;28;93506;-49
2023/12/12 11:42:04;;;;;;;;;;;15.70;61.40;;;;;;10324432;28;94929;-49
2023/12/12 11:47:05;;;;;;;;;;;15.70;61.40;;;;;;10323241;28;93716;-50
2023/12/12 11:52:07;;;;;;;;;;;15.70;61.40;;;;;;10323147;28;94771;-48
2023/12/12 11:57:10;;;;;;;;;;;15.70;61.40;;;;;;10305353;28;94468;-49
2023/12/12 12:02:12;;;;;;;;;;;15.60;61.50;;;;;;10292963;28;96692;-47
2023/12/12 12:07:14;;;;;;;;;;;15.70;61.50;;;;;;10321300;28;94490;-47
2023/12/12 12:12:16;;;;;;;;;;;15.60;61.50;;;;;;10323113;28;94375;-48
2023/12/12 12:17:18;;;;;;;;;;;15.60;61.50;;;;;;10323010;28;92952;-51
2023/12/12 12:22:20;;;;;;;;;;;15.60;61.50;;;;;;10322237;28;94461;-49
2023/12/12 12:27:22;;;;;;;;;;;15.60;61.50;;;;;;10321375;28;94211;-51
2023/12/12 12:32:24;;;;;;;;;;;15.60;61.60;;;;;;10302300;28;94594;-49
2023/12/12 12:37:32;;;;;;;;;;;15.60;61.70;;;;;;10322171;28;93388;-46
2023/12/12 12:42:38;;;;;;;;;;;15.60;61.70;;;;;;10291186;28;93488;-50
2023/12/12 12:47:40;;;;;;;;;;;15.60;61.70;;;;;;10321560;28;93988;-45
2023/12/12 12:52:42;;;;;;;;;;;15.60;61.80;;;;;;10318526;28;96659;-47
2023/12/12 12:57:44;;;;;;;;;;;15.60;61.90;;;;;;10320662;28;94433;-51
2023/12/12 13:02:46;;;;;;;;;;;15.60;61.90;;;;;;10320474;28;94771;-46
2023/12/12 13:07:47;;;;;;;;;;;15.60;61.90;;;;;;10319208;28;93676;-46
2023/12/12 13:12:50;;;;;;;;;;;15.60;61.90;;;;;;10301347;28;93402;-49
2023/12/12 13:17:52;;;;;;;;;;;15.60;61.90;;;;;;10302037;28;93483;-50
2023/12/12 13:22:54;;;;;;;;;;;15.60;61.90;;;;;;10321073;28;94075;-48
2023/12/12 13:27:55;;;;;;;;;;;15.50;61.90;;;;;;10303443;28;92820;-46
2023/12/12 13:32:57;;;;;;;;;;;15.60;61.90;;;;;;10321997;28;94497;-46
2023/12/12 13:37:59;;;;;;;;;;;15.50;61.90;;;;;;10322835;28;94131;-47
2023/12/12 13:43:01;;;;;;;;;;;15.50;61.90;;;;;;10325160;28;96832;-48
2023/12/12 13:48:03;;;;;;;;;;;15.50;62.00;;;;;;10327121;28;94630;-47
2023/12/12 13:53:05;;;;;;;;;;;15.50;62.10;;;;;;10315670;28;93633;-49
2023/12/12 13:58:07;;;;;;;;;;;15.50;62.10;;;;;;10326353;28;94087;-50
2023/12/12 14:03:08;;;;;;;;;;;15.50;62.30;;;;;;10326206;28;93484;-51
2023/12/12 14:08:11;;;;;;;;;;;15.50;62.30;;;;;;10324585;28;94183;-51
2023/12/12 14:13:13;;;;;;;;;;;15.50;62.60;;;;;;10325125;28;93010;-53
2023/12/12 14:18:15;;;;;;;;;;;15.50;62.60;;;;;;10318358;28;93757;-51
2023/12/12 14:23:17;;;;;;;;;;;15.50;62.50;;;;;;10325294;28;94191;-50
2023/12/12 14:28:19;;;;;;;;;;;15.50;62.20;;;;;;10325885;28;94758;-51
2023/12/12 14:33:21;;;;;;;;;;;15.60;62.20;;;;;;10322732;28;96847;-47
2023/12/12 14:38:23;;;;;;;;;;;15.60;62.10;;;;;;10313341;28;93532;-48
2023/12/12 14:43:25;;;;;;;;;;;15.60;62.10;;;;;;10326011;28;94125;-46
2023/12/12 14:48:28;;;;;;;;;;;15.60;62.10;;;;;;10323323;28;94554;-47
2023/12/12 14:53:30;;;;;;;;;;;15.60;62.10;;;;;;10306515;28;93537;-47
2023/12/12 14:58:31;;;;;;;;;;;15.60;62.20;;;;;;10324710;28;94446;-46
2023/12/12 15:03:33;;;;;;;;;;;15.50;62.10;;;;;;10311807;28;94385;-49
2023/12/12 15:08:35;;;;;;;;;;;15.50;62.20;;;;;;10324367;28;92871;-47
2023/12/12 15:13:37;;;;;;;;;;;15.50;62.30;;;;;;10290524;28;94470;-47
2023/12/12 15:18:39;;;;;;;;;;;15.50;62.30;;;;;;10324277;28;94944;-47
2023/12/12 15:23:41;;;;;;;;;;;15.50;62.40;;;;;;10322666;28;97052;-59
2023/12/12 15:28:43;;;;;;;;;;;15.50;62.40;;;;;;10323895;28;93696;-51
2023/12/12 15:33:45;;;;;;;;;;;15.50;62.50;;;;;;10323003;28;94443;-49
2023/12/12 15:38:47;;;;;;;;;;;15.50;62.60;;;;;;10324394;28;94489;-47
2023/12/12 15:43:49;;;;;;;;;;;15.40;62.60;;;;;;10319800;28;93415;-47
2023/12/12 15:48:51;;;;;;;;;;;15.40;62.60;;;;;;10323132;28;93417;-46
2023/12/12 15:53:54;;;;;;;;;;;15.40;62.60;;;;;;10323635;28;94749;-47
2023/12/12 15:58:56;;;;;;;;;;;15.40;62.60;;;;;;10323296;28;92761;-52
2023/12/12 16:04:00;;;;;;;;;;;15.40;62.60;;;;;;10322513;28;93210;-47
2023/12/12 16:09:05;;;;;;;;;;;15.40;62.60;;;;;;10305673;28;94269;-50
2023/12/12 16:14:07;;;;;;;;;;;15.40;62.70;;;;;;10317842;28;97167;-52
2023/12/12 16:19:09;;;;;;;;;;;15.50;62.70;;;;;;10305973;28;93570;-50
2023/12/12 16:24:11;;;;;;;;;;;15.40;62.60;;;;;;10322691;28;94525;-51
2023/12/12 16:29:12;;;;;;;;;;;15.50;62.70;;;;;;10322789;28;94404;-52
2023/12/12 16:34:14;;;;;;;;;;;15.40;62.70;;;;;;10322627;28;93510;-51
2023/12/12 16:39:16;;;;;;;;;;;15.40;62.60;;;;;;10321634;28;93817;-51
2023/12/12 16:44:18;;;;;;;;;;;15.50;62.50;;;;;;10322469;28;93422;-48
2023/12/12 16:49:20;;;;;;;;;;;15.50;62.30;;;;;;10322346;28;93720;-48
2023/12/12 16:54:22;;;;;;;;;;;15.60;62.30;;;;;;10320746;28;93947;-49
2023/12/12 16:59:24;;;;;;;;;;;15.60;62.20;;;;;;10323141;28;93411;-50
2023/12/12 17:04:27;;;;;;;;;;;15.60;62.20;;;;;;10298756;28;96588;-51
2023/12/12 17:09:29;;;;;;;;;;;15.50;62.20;;;;;;10321185;28;93467;-47
2023/12/12 17:14:31;;;;;;;;;;;15.50;62.30;;;;;;10316898;28;93385;-50
2023/12/12 17:19:33;;;;;;;;;;;15.60;62.50;;;;;;10328553;28;94495;-47
2023/12/12 17:24:38;;;;;;;;;;;15.90;62.30;;;;;;10329192;28;94095;-48
2023/12/12 17:29:40;;;;;;;;;;;16.20;61.70;;;;;;10328961;28;93337;-46
2023/12/12 17:34:45;;;;;;;;;;;16.50;61.10;;;;;;10328677;28;93870;-49
2023/12/12 17:39:47;;;;;;;;;;;16.80;60.50;;;;;;10329652;28;92783;-49
2023/12/12 17:44:49;;;;;;;;;;;17.10;60.00;;;;;;10327381;28;94450;-46
2023/12/12 17:49:51;;;;;;;;;;;17.20;59.50;;;;;;10327421;28;94502;-48
2023/12/12 17:54:53;;;;;;;;;;;17.30;59.30;;;;;;10312747;28;95786;-49
2023/12/12 17:59:54;;;;;;;;;;;17.40;59.20;;;;;;10308232;28;93589;-48
2023/12/12 18:04:57;;;;;;;;;;;17.40;59.00;;;;;;10315543;28;94130;-47
2023/12/12 18:10:00;;;;;;;;;;;17.50;58.90;;;;;;10326688;28;94458;-48
2023/12/12 18:15:02;;;;;;;;;;;17.60;58.80;;;;;;10323520;28;94682;-52
2023/12/12 18:20:04;;;;;;;;;;;17.60;58.60;;;;;;10304032;28;94817;-56
2023/12/12 18:25:06;;;;;;;;;;;17.60;58.60;;;;;;10319428;28;93757;-46
2023/12/12 18:30:08;;;;;;;;;;;17.60;58.60;;;;;;10326062;28;93311;-49
2023/12/12 18:35:11;;;;;;;;;;;17.50;58.80;;;;;;10325711;28;93535;-47
2023/12/12 18:40:16;;;;;;;;;;;17.60;59.00;;;;;;10325250;28;93538;-48
2023/12/12 18:45:18;;;;;;;;;;;17.70;58.90;;;;;;10321145;28;96970;-50
2023/12/12 18:50:21;;;;;;;;;;;17.80;58.50;;;;;;10314471;28;94079;-62
2023/12/12 18:55:23;;;;;;;;;;;17.90;58.30;;;;;;10307610;28;94645;-48
2023/12/12 19:00:25;;;;;;;;;;;17.90;58.20;;;;;;10325313;28;94338;-47
2023/12/12 19:05:27;;;;;;;;;;;17.90;58.40;;;;;;10305452;28;93455;-47
2023/12/12 19:10:30;;;;;;;;;;;17.90;58.50;;;;;;10323488;28;94449;-48
2023/12/12 19:15:32;;;;;;;;;;;17.90;59.30;;;;;;10310405;28;94487;-49
2023/12/12 19:20:34;;;;;;;;;;;17.90;58.30;;;;;;10304522;28;94017;-52
2023/12/12 19:25:36;;;;;;;;;;;17.80;58.30;;;;;;10323812;28;93508;-47
2023/12/12 19:30:38;;;;;;;;;;;17.90;58.50;;;;;;10324863;28;94808;-52
2023/12/12 19:35:40;;;;;;;;;;;17.90;58.50;;;;;;10321354;28;97338;-47
2023/12/12 19:40:42;;;;;;;;;;;18.00;58.40;;;;;;10323944;28;94433;-48
2023/12/12 19:45:44;;;;;;;;;;;18.20;58.10;;;;;;10323046;28;93549;-50
2023/12/12 19:50:46;;;;;;;;;;;18.20;57.90;;;;;;10295200;28;93455;-47
2023/12/12 19:55:48;;;;;;;;;;;18.20;57.90;;;;;;10323373;28;94723;-52
2023/12/12 20:00:50;;;;;;;;;;;18.10;58.10;;;;;;10292590;28;93405;-48
2023/12/12 20:05:52;;;;;;;;;;;18.10;58.10;;;;;;10306883;28;94920;-48
2023/12/12 20:10:55;;;;;;;;;;;18.10;58.00;;;;;;10306159;28;93001;-48
2023/12/12 20:15:58;;;;;;;;;;;18.00;58.00;;;;;;10312425;28;92785;-56
2023/12/12 20:21:01;;;;;;;;;;;18.00;58.20;;;;;;10304106;28;93477;-52
2023/12/12 20:26:03;;;;;;;;;;;18.00;58.40;;;;;;10317106;28;96799;-49
2023/12/12 20:31:05;;;;;;;;;;;18.00;58.30;;;;;;10299911;28;94019;-49
2023/12/12 20:36:08;;;;;;;;;;;18.10;58.10;;;;;;10303683;28;93628;-49
2023/12/12 20:41:11;;;;;;;;;;;18.10;58.10;;;;;;10316095;28;93475;-50
2023/12/12 20:46:13;;;;;;;;;;;18.10;58.10;;;;;;10301037;28;93446;-49
2023/12/12 20:51:15;;;;;;;;;;;18.00;58.20;;;;;;10328037;28;94752;-48
2023/12/12 20:56:17;;;;;;;;;;;17.80;58.40;;;;;;10327413;28;94476;-51
2023/12/12 21:01:18;;;;;;;;;;;17.70;58.50;;;;;;10325239;28;92722;-47
2023/12/12 21:06:20;;;;;;;;;;;17.60;58.80;;;;;;10327421;28;95022;-46
2023/12/12 21:11:23;;;;;;;;;;;17.50;59.00;;;;;;10324761;28;95048;-48
2023/12/12 21:16:27;;;;;;;;;;;17.40;59.20;;;;;;10307215;28;96240;-49
2023/12/12 21:21:28;;;;;;;;;;;17.30;59.50;;;;;;10319432;28;93407;-48
2023/12/12 21:26:30;;;;;;;;;;;17.20;59.70;;;;;;10328203;28;94483;-48
2023/12/12 21:31:32;;;;;;;;;;;17.10;59.80;;;;;;10308113;28;93600;-51
2023/12/12 21:36:35;;;;;;;;;;;17.00;60.60;;;;;;10314712;28;93459;-51
2023/12/12 21:41:37;;;;;;;;;;;16.90;60.30;;;;;;10327660;28;93941;-48
2023/12/12 21:46:39;;;;;;;;;;;16.90;60.30;;;;;;10319358;28;93498;-47
2023/12/12 21:51:43;;;;;;;;;;;16.80;60.10;;;;;;10311411;28;93743;-50
2023/12/12 21:56:44;;;;;;;;;;;16.70;59.90;;;;;;10304913;28;94491;-50
2023/12/12 22:01:47;;;;;;;;;;;16.70;59.80;;;;;;10315892;28;94582;-48
2023/12/12 22:06:54;;;;;;;;;;;16.60;59.60;;;;;;10319948;28;96824;-50
2023/12/12 22:11:56;;;;;;;;;;;16.60;59.40;;;;;;10316874;28;94545;-51
2023/12/12 22:16:58;;;;;;;;;;;16.50;59.20;;;;;;10321524;28;94811;-52
2023/12/12 22:21:59;;;;;;;;;;;16.50;59.20;;;;;;10325433;28;94422;-48
2023/12/12 22:27:01;;;;;;;;;;;16.50;59.00;;;;;;10322075;28;94564;-50
2023/12/12 22:32:03;;;;;;;;;;;16.40;59.30;;;;;;10319295;28;94646;-49
2023/12/12 22:37:05;;;;;;;;;;;16.40;59.70;;;;;;10309054;28;94606;-49
2023/12/12 22:42:07;;;;;;;;;;;16.30;59.80;;;;;;10327127;28;93048;-48
2023/12/12 22:47:09;;;;;;;;;;;16.30;59.70;;;;;;10326163;28;93570;-49
2023/12/12 22:52:11;;;;;;;;;;;16.30;59.60;;;;;;10324955;28;94112;-49
2023/12/12 22:57:13;;;;;;;;;;;16.30;59.40;;;;;;10316194;28;97279;-48
2023/12/12 23:02:15;;;;;;;;;;;16.30;59.30;;;;;;10318684;28;93447;-52
2023/12/12 23:07:17;;;;;;;;;;;16.30;59.20;;;;;;10307058;28;94356;-50
2023/12/12 23:12:18;;;;;;;;;;;16.30;59.00;;;;;;10298235;28;93391;-50
2023/12/12 23:17:20;;;;;;;;;;;16.30;58.80;;;;;;10321506;28;93924;-51
2023/12/12 23:22:22;;;;;;;;;;;16.20;58.60;;;;;;10323525;28;94511;-52
2023/12/12 23:27:24;;;;;;;;;;;16.20;59.00;;;;;;10322137;28;93616;-49
2023/12/12 23:32:26;;;;;;;;;;;16.20;59.30;;;;;;10308054;28;92500;-48
2023/12/12 23:37:27;;;;;;;;;;;16.20;59.40;;;;;;10322825;28;93489;-51
2023/12/12 23:42:29;;;;;;;;;;;16.20;59.10;;;;;;10315067;28;94615;-46
2023/12/12 23:47:31;;;;;;;;;;;16.20;58.90;;;;;;10303578;28;96369;-49
2023/12/12 23:52:34;;;;;;;;;;;16.20;58.70;;;;;;10322925;28;93665;-51
2023/12/12 23:57:36;;;;;;;;;;;16.20;58.50;;;;;;10307765;28;96774;-46
